sensor_id;sensor_type;location;lat;lon;timestamp;pressure;altitude;pressure_sealevel;temperature;humidity
8253;BME280;61313;48.396;10.008;2023-02-04T00:01:22;97221.53;;;7.06;73.46
8253;BME280;61313;48.396;10.008;2023-02-04T00:03:47;97229.91;;;7.25;73.02
8253;BME280;61313;48.396;10.008;2023-02-04T00:06:13;97219.59;;;7.18;72.67
8253;BME280;61313;48.396;10.008;2023-02-04T00:08:38;97242.25;;;7.13;73.10
8253;BME280;61313;48.396;10.008;2023-02-04T00:11:04;97252.81;;;7.07;72.60
8253;BME280;61313;48.396;10.008;2023-02-04T00:13:29;97241.38;;;7.16;72.64
8253;BME280;61313;48.396;10.008;2023-02-04T00:15:55;97237.03;;;7.15;73.18
8253;BME280;61313;48.396;10.008;2023-02-04T00:18:20;97231.81;;;7.15;72.82
8253;BME280;61313;48.396;10.008;2023-02-04T00:20:46;97231.66;;;7.22;72.37
8253;BME280;61313;48.396;10.008;2023-02-04T00:23:11;97231.78;;;7.16;72.51
8253;BME280;61313;48.396;10.008;2023-02-04T00:25:36;97242.09;;;7.24;72.40
8253;BME280;61313;48.396;10.008;2023-02-04T00:28:02;97237.88;;;7.17;72.89
8253;BME280;61313;48.396;10.008;2023-02-04T00:30:28;97239.47;;;7.26;72.47
8253;BME280;61313;48.396;10.008;2023-02-04T00:32:54;97239.38;;;7.30;72.38
8253;BME280;61313;48.396;10.008;2023-02-04T00:35:21;97242.91;;;7.28;72.29
8253;BME280;61313;48.396;10.008;2023-02-04T00:37:47;97241.25;;;7.22;72.39
8253;BME280;61313;48.396;10.008;2023-02-04T00:40:13;97250.63;;;7.34;71.86
8253;BME280;61313;48.396;10.008;2023-02-04T00:42:38;97265.28;;;7.41;71.52
8253;BME280;61313;48.396;10.008;2023-02-04T00:45:03;97265.50;;;7.30;71.97
8253;BME280;61313;48.396;10.008;2023-02-04T00:47:29;97273.19;;;7.39;71.38
8253;BME280;61313;48.396;10.008;2023-02-04T00:49:54;97267.97;;;7.38;71.17
8253;BME280;61313;48.396;10.008;2023-02-04T00:52:20;97264.44;;;7.42;71.05
8253;BME280;61313;48.396;10.008;2023-02-04T00:54:45;97268.59;;;7.51;70.23
8253;BME280;61313;48.396;10.008;2023-02-04T00:57:11;97266.91;;;7.50;70.84
8253;BME280;61313;48.396;10.008;2023-02-04T00:59:36;97263.38;;;7.51;70.31
8253;BME280;61313;48.396;10.008;2023-02-04T01:02:02;97275.41;;;7.61;69.99
8253;BME280;61313;48.396;10.008;2023-02-04T01:04:27;97259.16;;;7.43;70.40
8253;BME280;61313;48.396;10.008;2023-02-04T01:06:53;97259.91;;;7.50;70.73
8253;BME280;61313;48.396;10.008;2023-02-04T01:09:19;97265.88;;;7.58;71.21
8253;BME280;61313;48.396;10.008;2023-02-04T01:11:44;97267.59;;;7.58;71.71
8253;BME280;61313;48.396;10.008;2023-02-04T01:14:10;97262.72;;;7.39;73.06
8253;BME280;61313;48.396;10.008;2023-02-04T01:16:36;97264.22;;;7.53;72.73
8253;BME280;61313;48.396;10.008;2023-02-04T01:19:01;97263.59;;;7.40;73.46
8253;BME280;61313;48.396;10.008;2023-02-04T01:21:27;97267.13;;;7.36;74.11
8253;BME280;61313;48.396;10.008;2023-02-04T01:23:52;97267.06;;;7.39;74.33
8253;BME280;61313;48.396;10.008;2023-02-04T01:26:18;97281.09;;;7.33;74.97
8253;BME280;61313;48.396;10.008;2023-02-04T01:28:44;97275.91;;;7.32;74.72
8253;BME280;61313;48.396;10.008;2023-02-04T01:31:09;97272.38;;;7.34;74.56
8253;BME280;61313;48.396;10.008;2023-02-04T01:33:35;97281.25;;;7.26;74.94
8253;BME280;61313;48.396;10.008;2023-02-04T01:36:00;97282.84;;;7.33;74.13
8253;BME280;61313;48.396;10.008;2023-02-04T01:38:25;97277.75;;;7.25;74.68
8253;BME280;61313;48.396;10.008;2023-02-04T01:40:51;97287.31;;;7.28;74.56
8253;BME280;61313;48.396;10.008;2023-02-04T01:43:17;97291.59;;;7.30;74.53
8253;BME280;61313;48.396;10.008;2023-02-04T01:45:44;97289.94;;;7.26;74.55
8253;BME280;61313;48.396;10.008;2023-02-04T01:48:09;97296.84;;;7.27;74.62
8253;BME280;61313;48.396;10.008;2023-02-04T01:50:37;97308.91;;;7.37;74.28
8253;BME280;61313;48.396;10.008;2023-02-04T01:53:03;97315.06;;;7.32;72.24
8253;BME280;61313;48.396;10.008;2023-02-04T01:55:30;97309.03;;;7.28;72.72
8253;BME280;61313;48.396;10.008;2023-02-04T01:57:56;97304.53;;;7.36;72.50
8253;BME280;61313;48.396;10.008;2023-02-04T02:00:28;97310.50;;;7.45;71.67
8253;BME280;61313;48.396;10.008;2023-02-04T02:02:55;97315.19;;;7.22;72.42
8253;BME280;61313;48.396;10.008;2023-02-04T02:05:26;97329.00;;;7.32;70.68
8253;BME280;61313;48.396;10.008;2023-02-04T02:07:56;97319.28;;;7.39;68.52
8253;BME280;61313;48.396;10.008;2023-02-04T02:10:23;97324.50;;;7.42;68.41
8253;BME280;61313;48.396;10.008;2023-02-04T02:12:48;97331.44;;;7.41;67.83
8253;BME280;61313;48.396;10.008;2023-02-04T02:15:15;97325.34;;;7.41;67.50
8253;BME280;61313;48.396;10.008;2023-02-04T02:17:41;97333.25;;;7.38;67.39
8253;BME280;61313;48.396;10.008;2023-02-04T02:20:12;97331.34;;;7.48;67.83
8253;BME280;61313;48.396;10.008;2023-02-04T02:23:10;97344.25;;;7.57;67.46
8253;BME280;61313;48.396;10.008;2023-02-04T02:25:38;97347.06;;;7.45;67.01
8253;BME280;61313;48.396;10.008;2023-02-04T02:28:09;97353.16;;;7.45;66.89
8253;BME280;61313;48.396;10.008;2023-02-04T02:30:35;97367.25;;;7.35;66.70
8253;BME280;61313;48.396;10.008;2023-02-04T02:33:01;97358.47;;;7.39;66.66
8253;BME280;61313;48.396;10.008;2023-02-04T02:35:26;97368.25;;;7.26;66.84
8253;BME280;61313;48.396;10.008;2023-02-04T02:37:52;97352.53;;;7.29;67.53
8253;BME280;61313;48.396;10.008;2023-02-04T02:40:18;97365.38;;;7.43;67.13
8253;BME280;61313;48.396;10.008;2023-02-04T02:42:44;97367.13;;;7.41;66.99
8253;BME280;61313;48.396;10.008;2023-02-04T02:45:20;97367.34;;;7.29;66.43
8253;BME280;61313;48.396;10.008;2023-02-04T02:47:46;97372.38;;;7.41;66.38
8253;BME280;61313;48.396;10.008;2023-02-04T02:50:15;97370.69;;;7.37;67.13
8253;BME280;61313;48.396;10.008;2023-02-04T02:52:41;97369.63;;;7.49;66.54
8253;BME280;61313;48.396;10.008;2023-02-04T02:55:13;97378.44;;;7.41;67.12
8253;BME280;61313;48.396;10.008;2023-02-04T02:57:39;97387.16;;;7.42;67.00
8253;BME280;61313;48.396;10.008;2023-02-04T03:00:22;97386.25;;;7.43;67.43
8253;BME280;61313;48.396;10.008;2023-02-04T03:05:22;97400.88;;;7.55;67.10
8253;BME280;61313;48.396;10.008;2023-02-04T03:07:49;97396.66;;;7.46;67.17
8253;BME280;61313;48.396;10.008;2023-02-04T03:10:16;97404.59;;;7.38;67.34
8253;BME280;61313;48.396;10.008;2023-02-04T03:12:42;97402.91;;;7.37;67.39
8253;BME280;61313;48.396;10.008;2023-02-04T03:15:08;97404.63;;;7.37;67.86
8253;BME280;61313;48.396;10.008;2023-02-04T03:17:34;97397.53;;;7.47;67.11
8253;BME280;61313;48.396;10.008;2023-02-04T03:20:00;97395.84;;;7.42;67.50
8253;BME280;61313;48.396;10.008;2023-02-04T03:22:26;97400.31;;;7.34;68.12
8253;BME280;61313;48.396;10.008;2023-02-04T03:24:52;97409.00;;;7.36;67.95
8253;BME280;61313;48.396;10.008;2023-02-04T03:27:17;97407.28;;;7.35;68.19
8253;BME280;61313;48.396;10.008;2023-02-04T03:29:44;97407.22;;;7.37;68.38
8253;BME280;61313;48.396;10.008;2023-02-04T03:32:10;97410.88;;;7.27;68.58
8253;BME280;61313;48.396;10.008;2023-02-04T03:34:35;97420.34;;;7.34;68.53
8253;BME280;61313;48.396;10.008;2023-02-04T03:37:01;97417.47;;;7.51;66.83
8253;BME280;61313;48.396;10.008;2023-02-04T03:39:26;97417.72;;;7.34;67.48
8253;BME280;61313;48.396;10.008;2023-02-04T03:41:52;97425.56;;;7.35;67.65
8253;BME280;61313;48.396;10.008;2023-02-04T03:44:17;97427.19;;;7.42;66.91
8253;BME280;61313;48.396;10.008;2023-02-04T03:46:43;97418.50;;;7.40;66.88
8253;BME280;61313;48.396;10.008;2023-02-04T03:49:09;97422.94;;;7.35;66.97
8253;BME280;61313;48.396;10.008;2023-02-04T03:51:34;97418.47;;;7.43;66.75
8253;BME280;61313;48.396;10.008;2023-02-04T03:54:00;97433.34;;;7.38;66.43
8253;BME280;61313;48.396;10.008;2023-02-04T03:56:25;97433.34;;;7.37;66.41
8253;BME280;61313;48.396;10.008;2023-02-04T03:58:51;97426.97;;;7.56;65.79
8253;BME280;61313;48.396;10.008;2023-02-04T04:01:16;97435.94;;;7.40;66.30
8253;BME280;61313;48.396;10.008;2023-02-04T04:03:41;97433.31;;;7.40;65.98
8253;BME280;61313;48.396;10.008;2023-02-04T04:06:07;97437.50;;;7.50;65.69
8253;BME280;61313;48.396;10.008;2023-02-04T04:08:34;97434.09;;;7.47;66.09
8253;BME280;61313;48.396;10.008;2023-02-04T04:11:00;97422.91;;;7.37;66.15
8253;BME280;61313;48.396;10.008;2023-02-04T04:13:25;97437.00;;;7.25;66.60
8253;BME280;61313;48.396;10.008;2023-02-04T04:15:51;97430.84;;;7.32;66.49
8253;BME280;61313;48.396;10.008;2023-02-04T04:18:16;97425.63;;;7.29;66.84
8253;BME280;61313;48.396;10.008;2023-02-04T04:20:41;97429.09;;;7.31;66.86
8253;BME280;61313;48.396;10.008;2023-02-04T04:23:07;97432.72;;;7.21;66.93
8253;BME280;61313;48.396;10.008;2023-02-04T04:25:32;97432.66;;;7.26;66.69
8253;BME280;61313;48.396;10.008;2023-02-04T04:27:58;97423.19;;;7.17;66.48
8253;BME280;61313;48.396;10.008;2023-02-04T04:30:23;97425.81;;;7.15;67.22
8253;BME280;61313;48.396;10.008;2023-02-04T04:32:49;97426.66;;;7.20;66.08
8253;BME280;61313;48.396;10.008;2023-02-04T04:35:14;97430.19;;;7.16;66.49
8253;BME280;61313;48.396;10.008;2023-02-04T04:37:39;97440.56;;;7.19;66.33
8253;BME280;61313;48.396;10.008;2023-02-04T04:40:05;97444.25;;;7.03;67.06
8253;BME280;61313;48.396;10.008;2023-02-04T04:42:31;97453.84;;;7.03;67.41
8253;BME280;61313;48.396;10.008;2023-02-04T04:44:56;97462.56;;;7.02;67.40
8253;BME280;61313;48.396;10.008;2023-02-04T04:47:21;97459.06;;;7.03;67.34
8253;BME280;61313;48.396;10.008;2023-02-04T04:49:47;97470.41;;;7.00;67.13
8253;BME280;61313;48.396;10.008;2023-02-04T04:52:12;97472.94;;;7.06;67.07
8253;BME280;61313;48.396;10.008;2023-02-04T04:54:38;97466.63;;;7.22;66.22
8253;BME280;61313;48.396;10.008;2023-02-04T04:57:03;97467.69;;;7.08;66.49
8253;BME280;61313;48.396;10.008;2023-02-04T04:59:28;97460.81;;;7.00;67.23
8253;BME280;61313;48.396;10.008;2023-02-04T05:01:54;97483.44;;;7.02;66.97
8253;BME280;61313;48.396;10.008;2023-02-04T05:04:19;97483.50;;;6.95;67.15
8253;BME280;61313;48.396;10.008;2023-02-04T05:06:45;97481.72;;;7.00;66.88
8253;BME280;61313;48.396;10.008;2023-02-04T05:09:10;97482.63;;;6.98;67.10
8253;BME280;61313;48.396;10.008;2023-02-04T05:11:36;97482.63;;;6.98;66.13
8253;BME280;61313;48.396;10.008;2023-02-04T05:14:01;97494.25;;;6.71;65.55
8253;BME280;61313;48.396;10.008;2023-02-04T05:16:27;97490.66;;;6.81;65.32
8253;BME280;61313;48.396;10.008;2023-02-04T05:18:52;97489.75;;;6.84;65.50
8253;BME280;61313;48.396;10.008;2023-02-04T05:21:18;97494.97;;;6.82;65.78
8253;BME280;61313;48.396;10.008;2023-02-04T05:23:43;97506.41;;;6.70;65.23
8253;BME280;61313;48.396;10.008;2023-02-04T05:26:08;97501.13;;;6.75;65.74
8253;BME280;61313;48.396;10.008;2023-02-04T05:28:34;97512.50;;;6.71;64.41
8253;BME280;61313;48.396;10.008;2023-02-04T05:30:59;97494.97;;;6.82;63.53
8253;BME280;61313;48.396;10.008;2023-02-04T05:33:25;97510.72;;;6.76;63.35
8253;BME280;61313;48.396;10.008;2023-02-04T05:36:25;97521.34;;;6.56;62.49
8253;BME280;61313;48.396;10.008;2023-02-04T05:38:51;97515.22;;;6.60;61.86
8253;BME280;61313;48.396;10.008;2023-02-04T05:41:16;97520.38;;;6.63;61.74
8253;BME280;61313;48.396;10.008;2023-02-04T05:43:42;97525.59;;;6.63;61.67
8253;BME280;61313;48.396;10.008;2023-02-04T05:46:07;97538.69;;;6.60;61.23
8253;BME280;61313;48.396;10.008;2023-02-04T05:48:33;97535.13;;;6.66;61.31
8253;BME280;61313;48.396;10.008;2023-02-04T05:50:58;97529.06;;;6.65;61.21
8253;BME280;61313;48.396;10.008;2023-02-04T05:53:23;97530.88;;;6.60;61.84
8253;BME280;61313;48.396;10.008;2023-02-04T05:55:49;97539.66;;;6.48;61.82
8253;BME280;61313;48.396;10.008;2023-02-04T05:58:14;97548.38;;;6.47;61.22
8253;BME280;61313;48.396;10.008;2023-02-04T06:00:40;97544.03;;;6.46;61.30
8253;BME280;61313;48.396;10.008;2023-02-04T06:03:05;97559.63;;;6.49;61.53
8253;BME280;61313;48.396;10.008;2023-02-04T06:05:31;97558.78;;;6.50;61.88
8253;BME280;61313;48.396;10.008;2023-02-04T06:07:56;97560.50;;;6.51;62.09
8253;BME280;61313;48.396;10.008;2023-02-04T06:10:22;97554.38;;;6.57;61.69
8253;BME280;61313;48.396;10.008;2023-02-04T06:12:47;97546.56;;;6.55;61.57
8253;BME280;61313;48.396;10.008;2023-02-04T06:15:13;97553.44;;;6.63;61.28
8253;BME280;61313;48.396;10.008;2023-02-04T06:17:39;97567.38;;;6.58;60.79
8253;BME280;61313;48.396;10.008;2023-02-04T06:20:06;97564.03;;;6.46;61.26
8253;BME280;61313;48.396;10.008;2023-02-04T06:22:31;97564.81;;;6.54;61.16
8253;BME280;61313;48.396;10.008;2023-02-04T06:24:58;97566.59;;;6.49;61.67
8253;BME280;61313;48.396;10.008;2023-02-04T06:27:23;97576.13;;;6.53;61.73
8253;BME280;61313;48.396;10.008;2023-02-04T06:29:49;97577.84;;;6.54;61.23
8253;BME280;61313;48.396;10.008;2023-02-04T06:32:16;97583.09;;;6.52;61.77
8253;BME280;61313;48.396;10.008;2023-02-04T06:34:41;97581.44;;;6.42;61.75
8253;BME280;61313;48.396;10.008;2023-02-04T06:37:07;97583.28;;;6.28;62.02
8253;BME280;61313;48.396;10.008;2023-02-04T06:39:33;97593.59;;;6.40;61.62
8253;BME280;61313;48.396;10.008;2023-02-04T06:41:58;97597.06;;;6.42;61.57
8253;BME280;61313;48.396;10.008;2023-02-04T06:44:24;97589.28;;;6.38;61.30
8253;BME280;61313;48.396;10.008;2023-02-04T06:46:49;97598.88;;;6.35;61.18
8253;BME280;61313;48.396;10.008;2023-02-04T06:49:14;97605.03;;;6.27;61.24
8253;BME280;61313;48.396;10.008;2023-02-04T06:51:40;97613.84;;;6.10;62.04
8253;BME280;61313;48.396;10.008;2023-02-04T06:54:05;97614.59;;;6.23;61.45
8253;BME280;61313;48.396;10.008;2023-02-04T06:56:31;97622.34;;;6.34;60.95
8253;BME280;61313;48.396;10.008;2023-02-04T06:58:56;97632.69;;;6.45;60.52
8253;BME280;61313;48.396;10.008;2023-02-04T07:01:22;97626.66;;;6.41;60.52
8253;BME280;61313;48.396;10.008;2023-02-04T07:03:47;97627.72;;;6.12;60.81
8253;BME280;61313;48.396;10.008;2023-02-04T07:06:13;97632.00;;;6.24;60.44
8253;BME280;61313;48.396;10.008;2023-02-04T07:08:38;97631.94;;;6.32;60.12
8253;BME280;61313;48.396;10.008;2023-02-04T07:11:04;97638.84;;;6.33;59.49
8253;BME280;61313;48.396;10.008;2023-02-04T07:13:29;97625.84;;;6.31;59.76
8253;BME280;61313;48.396;10.008;2023-02-04T07:15:55;97632.78;;;6.35;59.36
8253;BME280;61313;48.396;10.008;2023-02-04T07:18:20;97643.16;;;6.43;59.31
8253;BME280;61313;48.396;10.008;2023-02-04T07:20:45;97641.28;;;6.57;58.79
8253;BME280;61313;48.396;10.008;2023-02-04T07:23:11;97650.00;;;6.55;59.35
8253;BME280;61313;48.396;10.008;2023-02-04T07:25:36;97648.25;;;6.55;59.08
8253;BME280;61313;48.396;10.008;2023-02-04T07:28:03;97649.91;;;6.67;58.78
8253;BME280;61313;48.396;10.008;2023-02-04T07:30:30;97656.88;;;6.65;59.26
8253;BME280;61313;48.396;10.008;2023-02-04T07:32:55;97645.59;;;6.63;59.87
8253;BME280;61313;48.396;10.008;2023-02-04T07:35:21;97645.63;;;6.60;59.73
8253;BME280;61313;48.396;10.008;2023-02-04T07:37:46;97654.25;;;6.64;59.35
8253;BME280;61313;48.396;10.008;2023-02-04T07:40:12;97654.22;;;6.68;58.56
8253;BME280;61313;48.396;10.008;2023-02-04T07:42:38;97655.97;;;6.68;58.79
8253;BME280;61313;48.396;10.008;2023-02-04T07:45:03;97662.75;;;6.87;58.31
8253;BME280;61313;48.396;10.008;2023-02-04T07:47:29;97666.31;;;6.83;58.08
8253;BME280;61313;48.396;10.008;2023-02-04T07:49:54;97669.63;;;7.00;57.50
8253;BME280;61313;48.396;10.008;2023-02-04T07:52:23;97671.38;;;7.02;57.15
8253;BME280;61313;48.396;10.008;2023-02-04T07:54:48;97679.16;;;7.05;57.58
8253;BME280;61313;48.396;10.008;2023-02-04T07:57:14;97689.56;;;7.08;57.58
8253;BME280;61313;48.396;10.008;2023-02-04T07:59:40;97688.69;;;7.06;58.13
8253;BME280;61313;48.396;10.008;2023-02-04T08:02:06;97693.75;;;7.24;57.55
8253;BME280;61313;48.396;10.008;2023-02-04T08:04:31;97692.13;;;7.14;58.02
8253;BME280;61313;48.396;10.008;2023-02-04T08:06:57;97707.78;;;7.11;57.69
8253;BME280;61313;48.396;10.008;2023-02-04T08:09:22;97708.72;;;7.04;58.12
8253;BME280;61313;48.396;10.008;2023-02-04T08:11:51;97716.56;;;7.05;58.10
8253;BME280;61313;48.396;10.008;2023-02-04T08:14:16;97714.03;;;6.97;57.62
8253;BME280;61313;48.396;10.008;2023-02-04T08:16:42;97714.91;;;6.95;58.21
8253;BME280;61313;48.396;10.008;2023-02-04T08:19:07;97714.84;;;7.01;58.38
8253;BME280;61313;48.396;10.008;2023-02-04T08:21:33;97720.94;;;6.98;58.79
8253;BME280;61313;48.396;10.008;2023-02-04T08:23:58;97730.56;;;6.93;58.69
8253;BME280;61313;48.396;10.008;2023-02-04T08:26:24;97724.56;;;6.84;58.96
8253;BME280;61313;48.396;10.008;2023-02-04T08:28:49;97727.88;;;7.01;58.38
8253;BME280;61313;48.396;10.008;2023-02-04T08:31:15;97726.22;;;6.97;58.85
8253;BME280;61313;48.396;10.008;2023-02-04T08:33:40;97721.06;;;6.88;58.52
8253;BME280;61313;48.396;10.008;2023-02-04T08:36:06;97730.63;;;6.84;58.93
8253;BME280;61313;48.396;10.008;2023-02-04T08:38:32;97730.53;;;6.98;58.31
8253;BME280;61313;48.396;10.008;2023-02-04T08:40:58;97728.72;;;7.09;58.42
8253;BME280;61313;48.396;10.008;2023-02-04T08:43:25;97727.00;;;7.04;57.49
8253;BME280;61313;48.396;10.008;2023-02-04T08:45:50;97729.44;;;7.22;57.03
8253;BME280;61313;48.396;10.008;2023-02-04T08:48:16;97724.09;;;7.37;57.08
8253;BME280;61313;48.396;10.008;2023-02-04T08:50:41;97731.03;;;7.38;56.48
8253;BME280;61313;48.396;10.008;2023-02-04T08:53:07;97728.38;;;7.41;56.17
8253;BME280;61313;48.396;10.008;2023-02-04T08:55:32;97722.34;;;7.38;55.18
8253;BME280;61313;48.396;10.008;2023-02-04T08:57:58;97733.69;;;7.35;55.22
8253;BME280;61313;48.396;10.008;2023-02-04T09:00:26;97738.00;;;7.38;55.32
8253;BME280;61313;48.396;10.008;2023-02-04T09:02:51;97733.72;;;7.32;55.12
8253;BME280;61313;48.396;10.008;2023-02-04T09:05:17;97739.13;;;7.14;55.12
8253;BME280;61313;48.396;10.008;2023-02-04T09:07:42;97741.56;;;7.29;54.63
8253;BME280;61313;48.396;10.008;2023-02-04T09:10:08;97746.88;;;7.21;54.43
8253;BME280;61313;48.396;10.008;2023-02-04T09:12:34;97753.16;;;6.97;55.07
8253;BME280;61313;48.396;10.008;2023-02-04T09:14:59;97751.34;;;7.06;55.78
8253;BME280;61313;48.396;10.008;2023-02-04T09:17:25;97750.53;;;7.00;56.00
8253;BME280;61313;48.396;10.008;2023-02-04T09:19:50;97748.38;;;7.46;54.68
8253;BME280;61313;48.396;10.008;2023-02-04T09:22:16;97746.94;;;7.96;53.19
8253;BME280;61313;48.396;10.008;2023-02-04T09:24:41;97746.09;;;7.97;52.76
8253;BME280;61313;48.396;10.008;2023-02-04T09:27:07;97746.03;;;8.01;52.60
8253;BME280;61313;48.396;10.008;2023-02-04T09:29:33;97745.44;;;8.49;51.86
8253;BME280;61313;48.396;10.008;2023-02-04T09:31:58;97751.22;;;8.04;50.96
8253;BME280;61313;48.396;10.008;2023-02-04T09:34:24;97758.25;;;7.98;52.42
8253;BME280;61313;48.396;10.008;2023-02-04T09:36:49;97759.25;;;7.89;51.78
8253;BME280;61313;48.396;10.008;2023-02-04T09:39:15;97764.81;;;7.57;52.63
8253;BME280;61313;48.396;10.008;2023-02-04T09:41:41;97768.91;;;7.81;52.04
8253;BME280;61313;48.396;10.008;2023-02-04T09:44:12;97766.84;;;8.11;51.74
8253;BME280;61313;48.396;10.008;2023-02-04T09:46:39;97768.38;;;8.27;50.57
8253;BME280;61313;48.396;10.008;2023-02-04T09:49:07;97772.66;;;8.34;50.07
8253;BME280;61313;48.396;10.008;2023-02-04T09:51:34;97768.13;;;8.47;50.12
8253;BME280;61313;48.396;10.008;2023-02-04T09:54:14;97775.69;;;8.70;49.16
8253;BME280;61313;48.396;10.008;2023-02-04T09:56:41;97768.00;;;8.56;49.88
8253;BME280;61313;48.396;10.008;2023-02-04T09:59:15;97770.50;;;8.65;50.12
8253;BME280;61313;48.396;10.008;2023-02-04T10:01:42;97774.88;;;8.65;49.42
8253;BME280;61313;48.396;10.008;2023-02-04T10:04:11;97775.81;;;8.61;50.63
8253;BME280;61313;48.396;10.008;2023-02-04T10:06:37;97777.63;;;8.56;50.59
8253;BME280;61313;48.396;10.008;2023-02-04T10:09:03;97777.31;;;8.76;50.85
8253;BME280;61313;48.396;10.008;2023-02-04T10:11:31;97775.47;;;8.84;49.94
8253;BME280;61313;48.396;10.008;2023-02-04T10:13:59;97772.59;;;8.99;49.45
8253;BME280;61313;48.396;10.008;2023-02-04T10:16:31;97775.50;;;8.82;50.42
8253;BME280;61313;48.396;10.008;2023-02-04T10:19:07;97785.91;;;8.85;50.95
8253;BME280;61313;48.396;10.008;2023-02-04T10:21:36;97781.16;;;9.12;51.34
8253;BME280;61313;48.396;10.008;2023-02-04T10:24:05;97776.91;;;9.05;51.18
8253;BME280;61313;48.396;10.008;2023-02-04T10:26:32;97783.00;;;9.04;50.37
8253;BME280;61313;48.396;10.008;2023-02-04T10:29:21;97777.13;;;8.88;51.40
8253;BME280;61313;48.396;10.008;2023-02-04T10:31:49;97772.09;;;8.76;51.09
8253;BME280;61313;48.396;10.008;2023-02-04T10:34:20;97782.28;;;8.29;52.14
8253;BME280;61313;48.396;10.008;2023-02-04T10:36:52;97781.16;;;8.50;52.33
8253;BME280;61313;48.396;10.008;2023-02-04T10:39:23;97782.75;;;8.63;51.06
8253;BME280;61313;48.396;10.008;2023-02-04T10:41:54;97775.00;;;8.56;51.42
8253;BME280;61313;48.396;10.008;2023-02-04T10:44:32;97787.50;;;8.32;51.71
8253;BME280;61313;48.396;10.008;2023-02-04T10:46:59;97780.75;;;8.13;51.93
8253;BME280;61313;48.396;10.008;2023-02-04T10:49:25;97778.69;;;8.38;51.51
8253;BME280;61313;48.396;10.008;2023-02-04T10:51:51;97762.09;;;8.42;51.77
8253;BME280;61313;48.396;10.008;2023-02-04T10:54:19;97768.03;;;8.55;51.18
8253;BME280;61313;48.396;10.008;2023-02-04T10:57:13;97775.34;;;8.26;51.45
8253;BME280;61313;48.396;10.008;2023-02-04T10:59:41;97767.28;;;8.48;51.97
8253;BME280;61313;48.396;10.008;2023-02-04T11:04:51;97773.31;;;8.52;51.85
8253;BME280;61313;48.396;10.008;2023-02-04T11:07:17;97766.38;;;8.49;51.04
8253;BME280;61313;48.396;10.008;2023-02-04T11:09:43;97771.63;;;8.47;51.69
8253;BME280;61313;48.396;10.008;2023-02-04T11:12:34;97765.34;;;8.59;51.28
8253;BME280;61313;48.396;10.008;2023-02-04T11:15:00;97770.44;;;8.68;51.29
8253;BME280;61313;48.396;10.008;2023-02-04T11:17:31;97755.31;;;8.89;50.54
8253;BME280;61313;48.396;10.008;2023-02-04T11:19:57;97756.16;;;8.91;49.57
8253;BME280;61313;48.396;10.008;2023-02-04T11:22:44;97762.84;;;8.52;50.33
8253;BME280;61313;48.396;10.008;2023-02-04T11:25:35;97757.69;;;8.47;51.15
8253;BME280;61313;48.396;10.008;2023-02-04T11:28:24;97760.97;;;8.61;51.02
8253;BME280;61313;48.396;10.008;2023-02-04T11:31:02;97750.34;;;8.72;51.00
8253;BME280;61313;48.396;10.008;2023-02-04T11:33:41;97754.25;;;8.42;52.13
8253;BME280;61313;48.396;10.008;2023-02-04T11:36:09;97753.06;;;8.64;51.40
8253;BME280;61313;48.396;10.008;2023-02-04T11:38:36;97744.06;;;8.84;50.50
8253;BME280;61313;48.396;10.008;2023-02-04T11:41:03;97749.16;;;8.93;50.08
8253;BME280;61313;48.396;10.008;2023-02-04T11:43:33;97750.72;;;9.03;50.58
8253;BME280;61313;48.396;10.008;2023-02-04T11:46:06;97753.13;;;9.17;49.89
8253;BME280;61313;48.396;10.008;2023-02-04T11:48:35;97756.78;;;9.07;48.95
8253;BME280;61313;48.396;10.008;2023-02-04T11:51:02;97749.13;;;9.47;48.68
8253;BME280;61313;48.396;10.008;2023-02-04T11:53:32;97748.78;;;9.66;47.46
8253;BME280;61313;48.396;10.008;2023-02-04T11:55:58;97751.72;;;9.95;47.49
8253;BME280;61313;48.396;10.008;2023-02-04T11:58:24;97752.78;;;9.85;47.73
8253;BME280;61313;48.396;10.008;2023-02-04T12:00:51;97753.81;;;9.78;47.77
8253;BME280;61313;48.396;10.008;2023-02-04T12:03:28;97746.28;;;9.60;47.80
8253;BME280;61313;48.396;10.008;2023-02-04T12:05:55;97747.53;;;9.37;48.03
8253;BME280;61313;48.396;10.008;2023-02-04T12:11:06;97762.72;;;8.59;51.11
8253;BME280;61313;48.396;10.008;2023-02-04T12:13:49;97767.44;;;8.31;51.20
8253;BME280;61313;48.396;10.008;2023-02-04T12:16:14;97761.81;;;8.63;51.09
8253;BME280;61313;48.396;10.008;2023-02-04T12:18:40;97759.19;;;8.62;50.84
8253;BME280;61313;48.396;10.008;2023-02-04T12:21:06;97759.91;;;8.75;48.82
8253;BME280;61313;48.396;10.008;2023-02-04T12:23:31;97756.91;;;8.39;49.96
8253;BME280;61313;48.396;10.008;2023-02-04T12:25:57;97762.25;;;8.26;50.82
8253;BME280;61313;48.396;10.008;2023-02-04T12:28:23;97766.78;;;8.15;51.43
8253;BME280;61313;48.396;10.008;2023-02-04T12:30:49;97778.25;;;8.02;50.87
8253;BME280;61313;48.396;10.008;2023-02-04T12:33:15;97784.50;;;7.90;51.16
8253;BME280;61313;48.396;10.008;2023-02-04T12:35:40;97780.84;;;8.05;50.81
8253;BME280;61313;48.396;10.008;2023-02-04T12:38:06;97775.44;;;8.19;50.28
8253;BME280;61313;48.396;10.008;2023-02-04T12:40:33;97782.41;;;8.20;50.88
8253;BME280;61313;48.396;10.008;2023-02-04T12:42:58;97790.91;;;8.36;51.20
8253;BME280;61313;48.396;10.008;2023-02-04T12:45:24;97786.66;;;8.28;51.30
8253;BME280;61313;48.396;10.008;2023-02-04T12:47:49;97788.28;;;8.42;51.50
8253;BME280;61313;48.396;10.008;2023-02-04T12:50:16;97787.16;;;8.60;51.07
8253;BME280;61313;48.396;10.008;2023-02-04T12:52:53;97786.09;;;8.75;50.76
8253;BME280;61313;48.396;10.008;2023-02-04T12:55:20;97784.78;;;8.41;51.20
8253;BME280;61313;48.396;10.008;2023-02-04T12:57:46;97788.81;;;8.67;49.85
8253;BME280;61313;48.396;10.008;2023-02-04T13:00:13;97788.09;;;8.54;49.64
8253;BME280;61313;48.396;10.008;2023-02-04T13:02:39;97793.13;;;8.69;50.03
8253;BME280;61313;48.396;10.008;2023-02-04T13:05:05;97798.25;;;8.79;49.36
8253;BME280;61313;48.396;10.008;2023-02-04T13:07:31;97798.97;;;8.87;50.03
8253;BME280;61313;48.396;10.008;2023-02-04T13:09:58;97800.63;;;8.93;49.86
8253;BME280;61313;48.396;10.008;2023-02-04T13:12:24;97797.09;;;8.95;48.81
8253;BME280;61313;48.396;10.008;2023-02-04T13:14:49;97803.44;;;8.82;49.44
8253;BME280;61313;48.396;10.008;2023-02-04T13:17:15;97805.50;;;8.58;49.58